createdAt,value
2022-12-18T00:00:59.116Z,101470.28
2022-12-18T00:04:04.519Z,101475.38
2022-12-18T00:07:07.218Z,101481.41
2022-12-18T00:10:10.304Z,101483.12
2022-12-18T00:13:13.430Z,101488.22
2022-12-18T00:16:21.990Z,101493.41
2022-12-18T00:19:24.629Z,101496.84
2022-12-18T00:22:27.438Z,101496.94
2022-12-18T00:25:29.946Z,101502.09
2022-12-18T00:28:33.628Z,101515.91
2022-12-18T00:31:36.232Z,101530.59
2022-12-18T00:34:39.055Z,101527.09
2022-12-18T00:37:41.730Z,101536.66
2022-12-18T00:40:45.048Z,101544.44
2022-12-18T00:43:48.754Z,101549.63
2022-12-18T00:46:51.656Z,101552.19
2022-12-18T00:49:54.097Z,101546.13
2022-12-18T00:52:58.019Z,101564.22
2022-12-18T00:56:01.245Z,101555.59
2022-12-18T00:59:04.230Z,101560.75
2022-12-18T01:02:07.518Z,101570.22
2022-12-18T01:05:12.286Z,101560.78
2022-12-18T01:08:14.912Z,101568.56
2022-12-18T01:11:21.312Z,101572.03
2022-12-18T01:14:24.181Z,101581.47
2022-12-18T01:17:26.989Z,101581.47
2022-12-18T01:20:29.529Z,101584.94
2022-12-18T01:23:32.397Z,101584.12
2022-12-18T01:26:36.007Z,101591.88
2022-12-18T01:29:39.108Z,101591.84
2022-12-18T01:32:41.841Z,101595.31
2022-12-18T01:35:44.814Z,101605.66
2022-12-18T01:38:48.585Z,101601.34
2022-12-18T01:42:03.411Z,101603.13
2022-12-18T01:45:15.004Z,101599.66
2022-12-18T01:48:19.435Z,101601.38
2022-12-18T01:51:22.626Z,101606.53
2022-12-18T01:54:25.854Z,101609.97
2022-12-18T01:57:29.477Z,101619.44
2022-12-18T02:00:32.664Z,101622.88
2022-12-18T02:03:36.754Z,101628.91
2022-12-18T02:06:42.510Z,101632.41
2022-12-18T02:09:51.465Z,101627.22
2022-12-18T02:13:08.237Z,101631.53
2022-12-18T02:16:30.549Z,101630.66
2022-12-18T02:19:57.867Z,101633.28
2022-12-18T02:23:22.329Z,101635.84
2022-12-18T02:26:37.408Z,101646.19
2022-12-18T02:29:57.596Z,101641.03
2022-12-18T02:33:04.940Z,101638.44
2022-12-18T02:36:10.433Z,101648.75
2022-12-18T02:39:16.594Z,101650.53
2022-12-18T02:42:20.430Z,101659.16
2022-12-18T02:45:24.216Z,101660.87
2022-12-18T02:48:36.164Z,101666.03
2022-12-18T02:51:54.282Z,101666.03
2022-12-18T02:55:15.431Z,101661.72
2022-12-18T02:58:27.885Z,101669.47
2022-12-18T03:01:36.634Z,101678.97
2022-12-18T03:04:42.617Z,101688.44
2022-12-18T03:08:00.305Z,101687.59
2022-12-18T03:11:08.974Z,101693.59
2022-12-18T03:14:18.177Z,101684.97
2022-12-18T03:17:26.440Z,101690.13
2022-12-18T03:20:32.045Z,101695.28
2022-12-18T03:23:41.055Z,101701.31
2022-12-18T03:26:53.627Z,101698.75
2022-12-18T03:30:09.110Z,101700.44
2022-12-18T03:33:26.674Z,101711.63
2022-12-18T03:36:34.884Z,101713.34
2022-12-18T03:39:37.760Z,101723.69
2022-12-18T03:42:51.812Z,101722.81
2022-12-18T03:46:16.524Z,101730.53
2022-12-18T03:49:33.493Z,101732.25
2022-12-18T03:52:36.013Z,101727.06
2022-12-18T03:55:40.106Z,101730.53
2022-12-18T03:58:45.417Z,101733.06
2022-12-18T04:01:53.910Z,101727.03
2022-12-18T04:05:01.684Z,101725.31
2022-12-18T04:08:05.495Z,101727.88
2022-12-18T04:11:09.839Z,101738.13
2022-12-18T04:14:17.624Z,101753.66
2022-12-18T04:17:23.599Z,101742.50
2022-12-18T04:20:26.511Z,101744.25
2022-12-18T04:23:29.657Z,101751.13
2022-12-18T04:26:32.740Z,101751.94
2022-12-18T04:29:36.290Z,101754.53
2022-12-18T04:32:38.778Z,101757.94
2022-12-18T04:35:42.676Z,101750.16
2022-12-18T04:38:45.802Z,101765.63
2022-12-18T04:41:49.140Z,101758.72
2022-12-18T04:44:51.723Z,101767.38
2022-12-18T04:47:54.592Z,101773.38
2022-12-18T04:50:57.272Z,101788.84
2022-12-18T04:54:00.011Z,101791.41
2022-12-18T04:57:02.450Z,101788.88
2022-12-18T05:00:07.032Z,101804.38
2022-12-18T05:03:09.641Z,101793.16
2022-12-18T05:06:12.478Z,101807.72
2022-12-18T05:09:15.331Z,101804.28
2022-12-18T05:12:18.055Z,101810.28
2022-12-18T05:15:20.601Z,101815.47
2022-12-18T05:18:26.890Z,101816.34
2022-12-18T05:21:29.841Z,101822.34
2022-12-18T05:24:32.599Z,101814.56
2022-12-18T05:27:35.119Z,101820.56
2022-12-18T05:30:38.703Z,101824.88
2022-12-18T05:33:45.317Z,101832.59
2022-12-18T05:36:48.192Z,101840.31
2022-12-18T05:39:50.749Z,101848.03
2022-12-18T05:42:53.745Z,101847.09
2022-12-18T05:45:57.237Z,101841.03
2022-12-18T05:49:01.283Z,101845.25
2022-12-18T05:52:03.786Z,101852.06
2022-12-18T05:55:06.851Z,101847.63
2022-12-18T05:58:11.944Z,101856.31
2022-12-18T06:01:18.259Z,101859.84
2022-12-18T06:04:21.216Z,101859.75
2022-12-18T06:07:23.747Z,101857.31
2022-12-18T06:10:26.821Z,101865.03
2022-12-18T06:13:29.457Z,101866.66
2022-12-18T06:16:32.923Z,101869.25
2022-12-18T06:19:36.058Z,101876.16
2022-12-18T06:22:38.896Z,101876.06
2022-12-18T06:25:41.752Z,101870.91
2022-12-18T06:28:45.069Z,101887.59
2022-12-18T06:31:47.930Z,101893.38
2022-12-18T06:34:50.753Z,101901.00
2022-12-18T06:37:53.257Z,101904.06
2022-12-18T06:40:56.071Z,101910.28
2022-12-18T06:44:00.068Z,101919.44
2022-12-18T06:47:03.367Z,101921.78
2022-12-18T06:50:06.678Z,101921.03
2022-12-18T06:53:09.590Z,101929.69
2022-12-18T06:56:12.103Z,101928.87
2022-12-18T06:59:15.770Z,101917.00
2022-12-18T07:02:18.623Z,101927.28
2022-12-18T07:05:21.555Z,101939.28
2022-12-18T07:08:24.077Z,101949.63
2022-12-18T07:11:27.045Z,101949.78
2022-12-18T07:14:29.893Z,101956.69
2022-12-18T07:17:32.851Z,101954.09
2022-12-18T07:20:35.471Z,101960.22
2022-12-18T07:23:38.973Z,101967.94
2022-12-18T07:26:44.272Z,101978.31
2022-12-18T07:29:47.719Z,101981.75
2022-12-18T07:32:50.324Z,101987.81
2022-12-18T07:35:53.236Z,101989.78
2022-12-18T07:38:56.027Z,101999.81
2022-12-18T07:42:17.578Z,102003.22
2022-12-18T07:45:20.055Z,102009.31
2022-12-18T07:48:23.073Z,102009.22
2022-12-18T07:51:25.966Z,102007.50
2022-12-18T07:54:28.748Z,102023.84
2022-12-18T07:57:50.158Z,102030.75
2022-12-18T08:00:54.027Z,102034.22
2022-12-18T08:03:56.913Z,102036.50
2022-12-18T08:06:59.803Z,102046.72
2022-12-18T08:10:02.871Z,102041.56
2022-12-18T08:13:07.112Z,102047.97
2022-12-18T08:16:09.965Z,102051.47
2022-12-18T08:19:13.110Z,102057.16
2022-12-18T08:22:16.293Z,102052.50
2022-12-18T08:25:18.850Z,102056.00
2022-12-18T08:28:21.655Z,102064.25
2022-12-18T08:31:25.070Z,102062.75
2022-12-18T08:34:27.916Z,102060.44
2022-12-18T08:37:30.724Z,102065.38
2022-12-18T08:40:34.128Z,102071.88
2022-12-18T08:43:55.290Z,102072.03
2022-12-18T08:46:59.163Z,102072.22
2022-12-18T08:50:01.737Z,102062.28
2022-12-18T08:53:04.898Z,102071.53
2022-12-18T08:56:08.677Z,102069.00
2022-12-18T08:59:17.569Z,102072.56
2022-12-18T09:02:22.016Z,102079.69
2022-12-18T09:05:25.018Z,102077.50
2022-12-18T09:08:28.583Z,102080.13
2022-12-18T09:11:33.121Z,102087.91
2022-12-18T09:14:36.723Z,102089.19
2022-12-18T09:17:39.922Z,102095.03
2022-12-18T09:20:42.996Z,102101.53
2022-12-18T09:23:51.843Z,102105.84
2022-12-18T09:26:57.869Z,102097.69
2022-12-18T09:30:01.298Z,102101.09
2022-12-18T09:33:05.855Z,102099.31
2022-12-18T09:36:16.195Z,102092.22
2022-12-18T09:39:19.707Z,102098.75
2022-12-18T09:42:30.708Z,102108.25
2022-12-18T09:45:43.729Z,102106.44
2022-12-18T09:48:52.228Z,102099.06
2022-12-18T09:52:09.671Z,102109.84
2022-12-18T09:55:25.873Z,102097.03
2022-12-18T09:58:52.613Z,102106.94
2022-12-18T10:01:56.372Z,102103.72
2022-12-18T10:05:13.495Z,102093.72
2022-12-18T10:08:30.634Z,102092.16
2022-12-18T10:11:45.129Z,102091.56
2022-12-18T10:15:11.492Z,102089.34
2022-12-18T10:18:20.293Z,102089.84
2022-12-18T10:21:53.186Z,102090.97
2022-12-18T10:25:26.529Z,102091.22
2022-12-18T10:28:31.706Z,102089.16
2022-12-18T10:31:34.535Z,102077.56
2022-12-18T10:34:37.146Z,102078.47
2022-12-18T10:38:01.657Z,102078.50
2022-12-18T10:41:29.533Z,102084.22
2022-12-18T10:44:32.631Z,102073.03
2022-12-18T10:47:36.121Z,102075.53
2022-12-18T10:51:09.849Z,102076.25
2022-12-18T10:54:08.077Z,102086.31
2022-12-18T10:57:26.040Z,102077.94
2022-12-18T11:00:31.482Z,102082.84
2022-12-18T11:03:44.665Z,102078.59
2022-12-18T11:06:58.594Z,102084.25
2022-12-18T11:10:04.926Z,102084.41
2022-12-18T11:13:25.117Z,102085.72
2022-12-18T11:16:29.763Z,102075.16
2022-12-18T11:19:42.006Z,102076.25
2022-12-18T11:22:56.699Z,102069.31
2022-12-18T11:26:02.827Z,102063.44
2022-12-18T11:29:14.125Z,102063.97
2022-12-18T11:32:16.663Z,102060.41
2022-12-18T11:35:31.624Z,102065.66
2022-12-18T11:38:41.745Z,102062.91
2022-12-18T11:42:12.472Z,102064.31
2022-12-18T11:45:15.014Z,102058.19
2022-12-18T11:48:26.633Z,102061.41
2022-12-18T11:52:05.840Z,102059.44
2022-12-18T11:55:31.467Z,102060.72
2022-12-18T11:59:00.549Z,102058.56
2022-12-18T12:02:23.483Z,102047.03
2022-12-18T12:05:53.241Z,102055.66
2022-12-18T12:09:05.481Z,102051.00
2022-12-18T12:12:11.460Z,102036.41
2022-12-18T12:15:20.324Z,102047.66
2022-12-18T12:18:44.615Z,102043.66
2022-12-18T12:22:03.371Z,102046.31
2022-12-18T12:25:18.261Z,102045.25
2022-12-18T12:28:37.543Z,102037.53
2022-12-18T12:32:08.205Z,102042.53
2022-12-18T12:35:33.024Z,102049.44
2022-12-18T12:38:51.833Z,102046.81
2022-12-18T12:42:13.822Z,102053.19
2022-12-18T12:45:24.277Z,102055.41
2022-12-18T12:48:47.259Z,102064.37
2022-12-18T12:52:16.095Z,102059.28
2022-12-18T12:55:22.967Z,102060.72
2022-12-18T12:58:59.234Z,102066.56
2022-12-18T13:02:34.809Z,102071.38
2022-12-18T13:05:50.714Z,102077.78
2022-12-18T13:08:59.503Z,102083.63
2022-12-18T13:12:24.057Z,102078.91
2022-12-18T13:15:47.028Z,102077.91
2022-12-18T13:18:53.441Z,102081.41
2022-12-18T13:21:57.600Z,102084.72
2022-12-18T13:25:01.053Z,102088.50
2022-12-18T13:28:10.740Z,102094.19
2022-12-18T13:31:32.125Z,102094.09
2022-12-18T13:34:35.151Z,102102.88
2022-12-18T13:37:45.121Z,102102.81
2022-12-18T13:40:47.807Z,102105.59
2022-12-18T13:44:00.127Z,102106.66
2022-12-18T13:47:05.246Z,102111.16
2022-12-18T13:50:28.593Z,102123.31
2022-12-18T13:53:38.381Z,102112.22
2022-12-18T13:56:46.443Z,102119.47
2022-12-18T13:59:52.750Z,102126.31
2022-12-18T14:02:56.721Z,102122.84
2022-12-18T14:06:07.650Z,102132.53
2022-12-18T14:09:20.329Z,102129.16
2022-12-18T14:12:46.336Z,102122.28
2022-12-18T14:15:51.775Z,102126.62
2022-12-18T14:19:04.571Z,102124.09
2022-12-18T14:22:30.457Z,102124.28
2022-12-18T14:25:33.771Z,102132.91
2022-12-18T14:28:45.241Z,102123.31
2022-12-18T14:32:05.609Z,102125.97
2022-12-18T14:35:14.608Z,102123.34
2022-12-18T14:38:17.405Z,102125.03
2022-12-18T14:41:20.776Z,102133.00
2022-12-18T14:44:23.705Z,102134.78
2022-12-18T14:47:26.345Z,102140.88
2022-12-18T14:50:29.397Z,102145.25
2022-12-18T14:53:36.791Z,102153.91
2022-12-18T14:56:46.326Z,102160.06
2022-12-18T14:59:48.972Z,102162.59
2022-12-18T15:02:56.591Z,102162.63
2022-12-18T15:06:17.147Z,102169.63
2022-12-18T15:09:26.637Z,102174.88
2022-12-18T15:12:49.707Z,102177.53
2022-12-18T15:15:55.627Z,102184.53
2022-12-18T15:18:59.209Z,102185.44
2022-12-18T15:22:06.305Z,102189.81
2022-12-18T15:25:35.159Z,102188.94
2022-12-18T15:28:57.067Z,102192.47
2022-12-18T15:32:05.411Z,102200.59
2022-12-18T15:35:23.864Z,102205.44
2022-12-18T15:38:27.445Z,102207.19
2022-12-18T15:41:33.726Z,102213.28
2022-12-18T15:44:38.397Z,102220.22
2022-12-18T15:47:42.964Z,102218.53
2022-12-18T15:50:46.125Z,102218.56
2022-12-18T15:53:51.372Z,102229.81
2022-12-18T15:57:12.590Z,102232.41
2022-12-18T16:00:16.367Z,102234.16
2022-12-18T16:03:19.510Z,102241.97
2022-12-18T16:06:24.440Z,102248.03
2022-12-18T16:09:27.692Z,102244.53
2022-12-18T16:12:30.856Z,102242.81
2022-12-18T16:15:34.044Z,102241.94
2022-12-18T16:18:37.261Z,102236.78
2022-12-18T16:21:41.362Z,102239.38
2022-12-18T16:24:49.079Z,102252.34
2022-12-18T16:27:58.875Z,102258.13
2022-12-18T16:31:05.209Z,102264.22
2022-12-18T16:34:28.882Z,102267.56
2022-12-18T16:37:36.846Z,102273.03
2022-12-18T16:41:02.041Z,102270.53
2022-12-18T16:44:04.970Z,102273.13
2022-12-18T16:47:08.755Z,102273.06
2022-12-18T16:50:13.493Z,102278.28
2022-12-18T16:53:18.798Z,102280.03
2022-12-18T16:56:22.187Z,102283.47
2022-12-18T16:59:26.617Z,102290.38
2022-12-18T17:02:29.718Z,102280.84
2022-12-18T17:05:33.983Z,102284.28
2022-12-18T17:08:38.654Z,102285.97
2022-12-18T17:11:43.091Z,102285.09
2022-12-18T17:14:47.140Z,102279.06
2022-12-18T17:17:51.153Z,102264.31
2022-12-18T17:20:59.465Z,102266.88
2022-12-18T17:24:03.701Z,102271.22
2022-12-18T17:27:07.414Z,102261.72
2022-12-18T17:30:11.568Z,102264.28
2022-12-18T17:33:14.704Z,102272.91
2022-12-18T17:36:21.925Z,102267.72
2022-12-18T17:39:24.825Z,102279.84
2022-12-18T17:42:31.008Z,102278.09
2022-12-18T17:45:38.052Z,102278.06
2022-12-18T17:48:41.639Z,102272.91
2022-12-18T17:51:44.613Z,102278.88
2022-12-18T17:54:47.757Z,102286.66
2022-12-18T17:57:52.451Z,102295.38
2022-12-18T18:00:56.767Z,102288.41
2022-12-18T18:04:00.784Z,102287.50
2022-12-18T18:07:03.760Z,102278.88
2022-12-18T18:10:07.952Z,102282.31
2022-12-18T18:13:43.369Z,102269.38
2022-12-18T18:16:52.034Z,102274.53
2022-12-18T18:19:54.874Z,102278.81
2022-12-18T18:22:58.152Z,102285.72
2022-12-18T18:26:09.428Z,102286.56
2022-12-18T18:29:17.053Z,102284.03
2022-12-18T18:32:20.399Z,102289.16
2022-12-18T18:35:52.417Z,102290.03
2022-12-18T18:38:48.531Z,102281.34
2022-12-18T18:41:52.172Z,102289.03
2022-12-18T18:44:55.066Z,102287.31
2022-12-18T18:47:59.348Z,102301.09
2022-12-18T18:51:06.436Z,102303.72
2022-12-18T18:54:11.136Z,102305.41
2022-12-18T18:57:22.084Z,102306.25
2022-12-18T19:00:26.615Z,102314.87
2022-12-18T19:03:29.880Z,102316.53
2022-12-18T19:06:32.985Z,102325.94
2022-12-18T19:09:36.899Z,102323.28
2022-12-18T19:13:02.204Z,102333.59
2022-12-18T19:16:10.380Z,102329.25
2022-12-18T19:19:14.270Z,102337.84
2022-12-18T19:22:17.594Z,102334.34
2022-12-18T19:25:22.557Z,102336.09
2022-12-18T19:28:31.666Z,102342.19
2022-12-18T19:31:37.138Z,102339.53
2022-12-18T19:34:40.775Z,102349.03
2022-12-18T19:37:46.247Z,102349.91
2022-12-18T19:40:49.322Z,102353.28
2022-12-18T19:43:53.113Z,102364.59
2022-12-18T19:46:55.895Z,102352.41
2022-12-18T19:50:01.886Z,102355.84
2022-12-18T19:53:09.046Z,102366.25
2022-12-18T19:56:19.189Z,102363.69
2022-12-18T19:59:22.658Z,102364.59
2022-12-18T20:02:25.639Z,102378.31
2022-12-18T20:05:29.350Z,102390.16
2022-12-18T20:08:36.228Z,102376.72
2022-12-18T20:11:41.821Z,102377.50
2022-12-18T20:14:47.710Z,102376.50
2022-12-18T20:17:52.603Z,102382.50
2022-12-18T20:20:55.617Z,102375.37
2022-12-18T20:24:02.183Z,102391.72
2022-12-18T20:27:06.905Z,102387.44
2022-12-18T20:30:13.122Z,102379.53
2022-12-18T20:33:16.680Z,102390.97
2022-12-18T20:36:23.522Z,102393.69
2022-12-18T20:39:30.057Z,102398.72
2022-12-18T20:42:33.245Z,102394.53
2022-12-18T20:45:37.237Z,102383.09
2022-12-18T20:48:43.129Z,102386.41
2022-12-18T20:51:49.143Z,102390.88
2022-12-18T20:54:52.273Z,102398.75
2022-12-18T20:57:55.226Z,102397.19
2022-12-18T21:01:12.876Z,102402.44
2022-12-18T21:04:15.943Z,102395.25
2022-12-18T21:07:21.934Z,102396.13
2022-12-18T21:10:27.003Z,102411.50
2022-12-18T21:13:30.116Z,102405.53
2022-12-18T21:16:35.150Z,102411.38
2022-12-18T21:19:38.534Z,102421.91
2022-12-18T21:22:43.252Z,102412.28
2022-12-18T21:25:46.955Z,102416.56
2022-12-18T21:28:58.063Z,102422.69
2022-12-18T21:32:02.523Z,102416.50
2022-12-18T21:35:05.474Z,102410.44
2022-12-18T21:38:08.556Z,102413.88
2022-12-18T21:41:41.693Z,102406.81
2022-12-18T21:44:50.184Z,102406.66
2022-12-18T21:47:52.822Z,102400.47
2022-12-18T21:50:55.896Z,102407.31
2022-12-18T21:53:58.595Z,102403.37
2022-12-18T21:57:05.924Z,102388.09
2022-12-18T22:00:18.866Z,102394.22
2022-12-18T22:03:22.682Z,102390.47
2022-12-18T22:06:25.351Z,102400.78
2022-12-18T22:09:28.208Z,102390.62
2022-12-18T22:12:41.776Z,102393.94
2022-12-18T22:15:50.205Z,102396.41
2022-12-18T22:18:55.422Z,102391.91
2022-12-18T22:21:58.419Z,102396.97
2022-12-18T22:25:00.976Z,102396.88
2022-12-18T22:28:22.350Z,102395.97
2022-12-18T22:31:25.930Z,102393.38
2022-12-18T22:34:28.887Z,102394.38
2022-12-18T22:37:31.741Z,102394.22
2022-12-18T22:40:34.717Z,102401.12
2022-12-18T22:43:37.839Z,102395.81
2022-12-18T22:46:44.854Z,102402.31
2022-12-18T22:49:50.688Z,102414.53
2022-12-18T22:52:53.617Z,102417.06
2022-12-18T22:56:02.480Z,102410.16
2022-12-18T22:59:06.339Z,102409.37
2022-12-18T23:02:09.012Z,102416.97
2022-12-18T23:05:11.863Z,102413.56
2022-12-18T23:08:16.812Z,102423.09
2022-12-18T23:11:19.920Z,102421.38
2022-12-18T23:14:24.007Z,102428.25
2022-12-18T23:17:29.876Z,102422.16
2022-12-18T23:20:34.830Z,102428.12
2022-12-18T23:23:39.075Z,102417.72
2022-12-18T23:26:41.855Z,102415.88
2022-12-18T23:29:45.793Z,102424.16
2022-12-18T23:32:50.519Z,102422.47
2022-12-18T23:35:58.597Z,102416.34
2022-12-18T23:39:01.577Z,102420.59
2022-12-18T23:42:04.775Z,102417.22
2022-12-18T23:45:16.574Z,102416.34
2022-12-18T23:48:21.218Z,102422.22
2022-12-18T23:51:25.644Z,102424.03
2022-12-18T23:54:33.375Z,102418.69
2022-12-18T23:57:36.828Z,102418.09
